createdAt,value
2023-03-11T00:00:49.330Z,4.10
2023-03-11T00:03:27.819Z,4.50
2023-03-11T00:05:56.741Z,4.60
2023-03-11T00:08:25.691Z,5.10
2023-03-11T00:10:56.334Z,4.50
2023-03-11T00:13:24.995Z,4.50
2023-03-11T00:15:56.436Z,4.30
2023-03-11T00:18:27.249Z,4.80
2023-03-11T00:20:56.928Z,4.80
2023-03-11T00:23:27.071Z,4.40
2023-03-11T00:25:55.859Z,4.90
2023-03-11T00:28:26.770Z,4.20
2023-03-11T00:30:55.450Z,5.10
2023-03-11T00:33:24.426Z,5.20
2023-03-11T00:35:52.645Z,5.00
2023-03-11T00:38:23.018Z,5.30
2023-03-11T00:40:51.591Z,5.30
2023-03-11T00:43:19.696Z,6.50
2023-03-11T00:45:47.976Z,6.20
2023-03-11T00:48:16.728Z,6.50
2023-03-11T00:50:45.520Z,6.20
2023-03-11T00:53:13.747Z,6.00
2023-03-11T00:55:42.071Z,6.60
2023-03-11T00:58:13.505Z,6.90
2023-03-11T01:00:45.545Z,6.80
2023-03-11T01:03:13.755Z,7.40
2023-03-11T01:05:41.967Z,7.90
2023-03-11T01:08:10.288Z,6.90
2023-03-11T01:10:38.686Z,6.60
2023-03-11T01:13:06.841Z,7.70
2023-03-11T01:15:37.272Z,7.40
2023-03-11T01:18:07.794Z,6.70
2023-03-11T01:20:38.452Z,6.20
2023-03-11T01:23:08.595Z,6.70
2023-03-11T01:25:37.350Z,6.40
2023-03-11T01:28:08.454Z,6.50
2023-03-11T01:30:38.960Z,5.60
2023-03-11T01:33:09.494Z,5.90
2023-03-11T01:35:40.163Z,6.20
2023-03-11T01:38:08.567Z,6.40
2023-03-11T01:40:49.077Z,6.30
2023-03-11T01:43:37.449Z,5.90
2023-03-11T01:46:15.681Z,6.90
2023-03-11T01:48:57.413Z,6.20
2023-03-11T01:51:30.004Z,6.80
2023-03-11T01:54:04.160Z,5.50
2023-03-11T01:56:33.763Z,5.70
2023-03-11T01:59:02.608Z,5.70
2023-03-11T02:01:30.962Z,7.00
2023-03-11T02:04:02.883Z,7.30
2023-03-11T02:06:32.915Z,7.00
2023-03-11T02:09:01.680Z,6.70
2023-03-11T02:11:31.181Z,8.30
2023-03-11T02:14:04.691Z,7.30
2023-03-11T02:16:33.454Z,6.90
2023-03-11T02:19:21.294Z,6.70
2023-03-11T02:21:51.754Z,7.50
2023-03-11T02:24:31.808Z,7.30
2023-03-11T02:27:03.515Z,7.90
2023-03-11T02:29:34.162Z,7.30
2023-03-11T02:32:07.208Z,8.70
2023-03-11T02:34:38.719Z,7.80
2023-03-11T02:37:10.192Z,8.90
2023-03-11T02:40:04.972Z,9.50
2023-03-11T02:45:08.263Z,9.30
2023-03-11T02:47:39.154Z,9.50
2023-03-11T02:50:12.104Z,9.60
2023-03-11T02:52:40.404Z,9.60
2023-03-11T02:55:12.017Z,10.10
2023-03-11T02:57:41.036Z,9.60
2023-03-11T03:00:14.508Z,9.70
2023-03-11T03:02:45.986Z,9.10
2023-03-11T03:05:14.959Z,9.80
2023-03-11T03:07:43.860Z,10.10
2023-03-11T03:10:12.446Z,10.60
2023-03-11T03:12:40.802Z,9.80
2023-03-11T03:15:11.988Z,9.90
2023-03-11T03:17:40.275Z,10.60
2023-03-11T03:20:11.817Z,11.30
2023-03-11T03:22:42.537Z,11.10
2023-03-11T03:25:11.688Z,11.30
2023-03-11T03:27:40.354Z,11.60
2023-03-11T03:30:10.541Z,11.20
2023-03-11T03:32:39.576Z,13.10
2023-03-11T03:35:10.536Z,11.70
2023-03-11T03:38:01.977Z,12.70
2023-03-11T03:40:30.854Z,12.50
2023-03-11T03:43:00.585Z,13.10
2023-03-11T03:45:29.376Z,12.30
2023-03-11T03:47:57.761Z,13.90
2023-03-11T03:50:26.406Z,14.00
2023-03-11T03:52:55.843Z,14.20
2023-03-11T03:55:24.966Z,14.80
2023-03-11T03:57:53.937Z,14.40
2023-03-11T04:00:24.049Z,14.60
2023-03-11T04:02:55.890Z,15.50
2023-03-11T04:05:29.536Z,16.80
2023-03-11T04:07:58.295Z,19.30
2023-03-11T04:10:26.576Z,16.40
2023-03-11T04:12:55.847Z,16.10
2023-03-11T04:15:24.706Z,16.80
2023-03-11T04:17:54.049Z,16.50
2023-03-11T04:20:22.513Z,14.60
2023-03-11T04:22:51.845Z,15.10
2023-03-11T04:25:20.668Z,15.40
2023-03-11T04:27:50.290Z,15.10
2023-03-11T04:30:18.995Z,15.20
2023-03-11T04:32:48.464Z,15.60
2023-03-11T04:35:17.635Z,14.80
2023-03-11T04:37:46.423Z,13.40
2023-03-11T04:40:15.401Z,14.50
2023-03-11T04:42:43.787Z,15.50
2023-03-11T04:45:13.289Z,14.80
2023-03-11T04:47:44.078Z,14.40
2023-03-11T04:50:12.329Z,14.90
2023-03-11T04:52:43.475Z,14.30
2023-03-11T04:55:13.931Z,15.20
2023-03-11T04:57:44.027Z,14.20
2023-03-11T05:00:15.854Z,15.20
2023-03-11T05:02:46.829Z,13.60
2023-03-11T05:05:15.282Z,13.70
2023-03-11T05:07:44.832Z,12.80
2023-03-11T05:10:14.068Z,12.70
2023-03-11T05:12:42.284Z,11.00
2023-03-11T05:15:10.924Z,11.10
2023-03-11T05:17:39.160Z,11.80
2023-03-11T05:20:09.948Z,12.20
2023-03-11T05:22:38.502Z,12.30
2023-03-11T05:25:07.468Z,11.60
2023-03-11T05:27:35.869Z,12.90
2023-03-11T05:30:06.705Z,12.30
2023-03-11T05:32:36.136Z,11.70
2023-03-11T05:35:05.191Z,12.10
2023-03-11T05:37:35.378Z,10.10
2023-03-11T05:40:06.956Z,10.50
2023-03-11T05:42:36.720Z,10.40
2023-03-11T05:45:05.456Z,9.40
2023-03-11T05:47:34.251Z,9.60
2023-03-11T05:50:03.784Z,9.70
2023-03-11T05:52:34.010Z,8.40
2023-03-11T05:55:02.357Z,9.60
2023-03-11T05:57:31.277Z,8.40
2023-03-11T06:00:00.725Z,8.90
2023-03-11T06:02:29.797Z,18.50
2023-03-11T06:04:57.994Z,14.70
2023-03-11T06:07:26.380Z,8.40
2023-03-11T06:09:54.601Z,11.00
2023-03-11T06:12:24.073Z,8.60
2023-03-11T06:15:15.319Z,11.90
2023-03-11T06:17:44.273Z,9.30
2023-03-11T06:20:13.932Z,19.90
2023-03-11T06:22:42.727Z,11.40
2023-03-11T06:25:11.368Z,9.10
2023-03-11T06:27:40.098Z,8.20
2023-03-11T06:30:10.457Z,8.60
2023-03-11T06:32:46.538Z,12.20
2023-03-11T06:35:15.260Z,10.90
2023-03-11T06:37:46.450Z,12.20
2023-03-11T06:40:14.626Z,7.80
2023-03-11T06:42:47.608Z,7.80
2023-03-11T06:45:15.951Z,7.00
2023-03-11T06:47:44.481Z,6.70
2023-03-11T06:50:12.993Z,7.10
2023-03-11T06:52:41.169Z,6.90
2023-03-11T06:55:10.019Z,7.20
2023-03-11T06:57:38.334Z,8.20
2023-03-11T07:00:12.618Z,14.10
2023-03-11T07:02:51.557Z,7.30
2023-03-11T07:05:20.116Z,9.60
2023-03-11T07:07:48.907Z,9.50
2023-03-11T07:10:17.105Z,8.50
2023-03-11T07:12:45.220Z,9.20
2023-03-11T07:15:14.352Z,8.30
2023-03-11T07:17:42.876Z,8.30
2023-03-11T07:20:12.009Z,7.70
2023-03-11T07:22:40.248Z,7.50
2023-03-11T07:25:08.565Z,7.50
2023-03-11T07:27:36.691Z,8.00
2023-03-11T07:30:05.056Z,9.10
2023-03-11T07:32:33.501Z,8.10
2023-03-11T07:35:01.558Z,8.00
2023-03-11T07:37:29.717Z,7.80
2023-03-11T07:39:58.084Z,7.80
2023-03-11T07:42:26.259Z,7.60
2023-03-11T07:44:55.447Z,7.20
2023-03-11T07:47:24.958Z,6.80
2023-03-11T07:49:53.077Z,7.10
2023-03-11T07:52:21.743Z,6.00
2023-03-11T07:54:50.524Z,6.00
2023-03-11T07:57:18.698Z,6.50
2023-03-11T07:59:46.911Z,6.50
2023-03-11T08:02:15.266Z,6.70
2023-03-11T08:04:43.562Z,6.50
2023-03-11T08:07:11.787Z,6.00
2023-03-11T08:09:39.944Z,6.60
2023-03-11T08:12:08.620Z,5.60
2023-03-11T08:14:36.954Z,6.40
2023-03-11T08:17:05.658Z,6.40
2023-03-11T08:19:33.786Z,7.00
2023-03-11T08:22:05.095Z,6.60
2023-03-11T08:24:33.507Z,6.50
2023-03-11T08:27:01.653Z,5.40
2023-03-11T08:29:29.772Z,5.60
2023-03-11T08:31:58.094Z,5.60
2023-03-11T08:34:27.748Z,5.40
2023-03-11T08:36:56.071Z,5.20
2023-03-11T08:39:24.367Z,6.30
2023-03-11T08:41:52.486Z,5.60
2023-03-11T08:44:20.587Z,6.10
2023-03-11T08:46:49.196Z,6.10
2023-03-11T08:49:17.407Z,6.10
2023-03-11T08:51:45.652Z,6.60
2023-03-11T08:54:13.804Z,6.40
2023-03-11T08:56:41.904Z,7.10
2023-03-11T08:59:10.031Z,7.10
2023-03-11T09:01:38.334Z,7.50
2023-03-11T09:04:06.858Z,12.00
2023-03-11T09:06:35.102Z,6.30
2023-03-11T09:09:04.028Z,7.30
2023-03-11T09:11:32.665Z,7.40
2023-03-11T09:14:00.705Z,6.30
2023-03-11T09:16:28.885Z,7.40
2023-03-11T09:18:57.141Z,6.70
2023-03-11T09:21:25.263Z,6.50
2023-03-11T09:23:53.541Z,6.60
2023-03-11T09:26:22.108Z,6.90
2023-03-11T09:28:50.291Z,6.50
2023-03-11T09:31:19.260Z,7.60
2023-03-11T09:33:47.806Z,6.50
2023-03-11T09:36:19.515Z,7.60
2023-03-11T09:38:48.030Z,7.60
2023-03-11T09:41:18.949Z,7.80
2023-03-11T09:43:47.054Z,7.30
2023-03-11T09:46:29.557Z,5.70
2023-03-11T09:49:10.318Z,6.90
2023-03-11T09:51:43.508Z,6.00
2023-03-11T09:54:14.120Z,7.10
2023-03-11T09:56:44.591Z,7.10
2023-03-11T09:59:24.153Z,6.00
2023-03-11T10:01:52.927Z,6.30
2023-03-11T10:04:21.252Z,5.90
2023-03-11T10:06:50.553Z,5.90
2023-03-11T10:09:43.022Z,5.40
2023-03-11T10:12:42.014Z,7.00
2023-03-11T10:15:18.070Z,10.90
2023-03-11T10:17:46.223Z,6.50
2023-03-11T10:20:41.118Z,6.90
2023-03-11T10:23:26.353Z,6.40
2023-03-11T10:26:04.613Z,7.00
2023-03-11T10:28:39.894Z,7.40
2023-03-11T10:31:33.257Z,6.40
2023-03-11T10:36:53.212Z,7.60
2023-03-11T10:39:23.737Z,8.50
2023-03-11T10:41:59.457Z,7.50
2023-03-11T10:44:35.004Z,5.30
2023-03-11T10:47:04.440Z,4.90
2023-03-11T10:49:32.814Z,5.80
2023-03-11T10:52:04.235Z,5.10
2023-03-11T10:54:37.985Z,5.50
2023-03-11T10:57:26.620Z,5.00
2023-03-11T10:59:57.418Z,5.70
2023-03-11T11:02:27.290Z,5.00
2023-03-11T11:05:05.889Z,5.10
2023-03-11T11:07:37.589Z,6.70
2023-03-11T11:10:27.400Z,7.40
2023-03-11T11:12:59.188Z,6.00
2023-03-11T11:15:33.200Z,4.40
2023-03-11T11:18:05.392Z,4.40
2023-03-11T11:20:34.558Z,3.80
2023-03-11T11:23:04.167Z,3.90
2023-03-11T11:25:34.407Z,4.80
2023-03-11T11:28:22.760Z,4.40
2023-03-11T11:31:06.714Z,4.90
2023-03-11T11:33:50.808Z,5.30
2023-03-11T11:36:21.303Z,4.60
2023-03-11T11:38:50.939Z,4.30
2023-03-11T11:41:22.781Z,3.70
2023-03-11T11:44:01.463Z,5.00
2023-03-11T11:46:38.998Z,5.20
2023-03-11T11:49:19.291Z,25.60
2023-03-11T11:52:12.948Z,11.30
2023-03-11T11:54:49.921Z,11.60
2023-03-11T11:57:21.861Z,4.90
2023-03-11T11:59:50.783Z,4.80
2023-03-11T12:02:40.845Z,4.30
2023-03-11T12:05:35.914Z,2.60
2023-03-11T12:08:19.579Z,2.30
2023-03-11T12:10:58.190Z,1.90
2023-03-11T12:13:50.402Z,2.00
2023-03-11T12:16:40.074Z,2.00
2023-03-11T12:19:25.612Z,2.60
2023-03-11T12:21:59.674Z,2.40
2023-03-11T12:24:57.223Z,2.40
2023-03-11T12:28:00.001Z,2.40
2023-03-11T12:30:37.041Z,2.80
2023-03-11T12:33:37.095Z,2.70
2023-03-11T12:36:07.425Z,3.10
2023-03-11T12:38:47.671Z,3.40
2023-03-11T12:41:15.859Z,5.80
2023-03-11T12:43:44.127Z,6.60
2023-03-11T12:46:14.701Z,9.10
2023-03-11T12:48:46.170Z,6.00
2023-03-11T12:51:26.370Z,7.00
2023-03-11T12:53:55.672Z,6.10
2023-03-11T12:56:42.982Z,5.20
2023-03-11T12:59:48.735Z,4.80
2023-03-11T13:02:54.703Z,6.00
2023-03-11T13:05:48.069Z,5.10
2023-03-11T13:10:49.084Z,5.70
2023-03-11T13:13:32.650Z,5.40
2023-03-11T13:16:23.827Z,5.90
2023-03-11T13:18:51.949Z,5.80
2023-03-11T13:21:31.992Z,7.50
2023-03-11T13:24:19.237Z,6.90
2023-03-11T13:26:53.371Z,9.00
2023-03-11T13:29:52.425Z,9.10
2023-03-11T13:32:54.392Z,8.60
2023-03-11T13:35:37.679Z,9.00
2023-03-11T13:38:42.850Z,7.80
2023-03-11T13:41:20.563Z,7.30
2023-03-11T13:43:51.446Z,6.20
2023-03-11T13:46:38.626Z,8.30
2023-03-11T13:49:15.155Z,7.50
2023-03-11T13:51:46.736Z,7.80
2023-03-11T13:54:15.068Z,7.90
2023-03-11T13:56:57.308Z,6.80
2023-03-11T13:59:28.875Z,8.00
2023-03-11T14:02:00.367Z,6.20
2023-03-11T14:04:31.640Z,6.70
2023-03-11T14:07:00.617Z,6.90
2023-03-11T14:09:29.154Z,7.40
2023-03-11T14:12:05.236Z,5.20
2023-03-11T14:14:55.391Z,5.90
2023-03-11T14:17:23.474Z,4.30
2023-03-11T14:20:19.230Z,3.20
2023-03-11T14:22:49.963Z,2.50
2023-03-11T14:25:31.323Z,2.10
2023-03-11T14:28:02.313Z,2.10
2023-03-11T14:30:33.453Z,2.30
2023-03-11T14:33:22.442Z,2.10
2023-03-11T14:35:57.975Z,2.30
2023-03-11T14:38:29.660Z,2.70
2023-03-11T14:41:04.525Z,2.80
2023-03-11T14:43:35.728Z,5.60
2023-03-11T14:46:06.327Z,9.70
2023-03-11T14:48:40.398Z,4.50
2023-03-11T14:51:17.945Z,2.90
2023-03-11T14:53:51.618Z,2.20
2023-03-11T14:56:25.406Z,3.30
2023-03-11T14:59:15.817Z,2.30
2023-03-11T15:01:47.305Z,2.20
2023-03-11T15:04:26.984Z,2.10
2023-03-11T15:06:56.295Z,2.30
2023-03-11T15:09:25.350Z,26.80
2023-03-11T15:11:59.503Z,6.90
2023-03-11T15:14:27.880Z,1.90
2023-03-11T15:17:08.785Z,2.00
2023-03-11T15:19:38.351Z,11.00
2023-03-11T15:22:29.237Z,16.80
2023-03-11T15:25:00.287Z,9.20
2023-03-11T15:27:37.468Z,24.00
2023-03-11T15:30:18.308Z,14.80
2023-03-11T15:32:47.035Z,4.30
2023-03-11T15:35:28.251Z,3.00
2023-03-11T15:38:31.807Z,6.40
2023-03-11T15:43:34.306Z,30.30
2023-03-11T15:46:03.840Z,4.00
2023-03-11T15:48:33.497Z,2.20
2023-03-11T15:51:01.928Z,13.40
2023-03-11T15:53:31.145Z,6.70
2023-03-11T15:56:07.801Z,5.70
2023-03-11T15:58:38.527Z,5.80
2023-03-11T16:01:06.656Z,4.00
2023-03-11T16:03:36.652Z,2.10
2023-03-11T16:06:05.021Z,2.40
2023-03-11T16:08:33.115Z,4.40
2023-03-11T16:11:01.257Z,1.80
2023-03-11T16:13:29.439Z,2.60
2023-03-11T16:15:57.570Z,3.00
2023-03-11T16:18:25.759Z,1.70
2023-03-11T16:20:55.567Z,1.80
2023-03-11T16:23:30.801Z,2.60
2023-03-11T16:26:05.626Z,1.70
2023-03-11T16:28:33.746Z,2.00
2023-03-11T16:31:01.961Z,1.80
2023-03-11T16:33:30.504Z,2.30
2023-03-11T16:35:58.834Z,3.70
2023-03-11T16:38:27.428Z,2.40
2023-03-11T16:41:03.034Z,2.20
2023-03-11T16:43:32.479Z,2.20
2023-03-11T16:46:00.560Z,2.10
2023-03-11T16:48:28.974Z,2.70
2023-03-11T16:50:57.144Z,2.20
2023-03-11T16:53:26.397Z,2.60
2023-03-11T16:55:54.879Z,2.30
2023-03-11T16:58:23.257Z,2.70
2023-03-11T17:00:51.586Z,2.70
2023-03-11T17:03:21.821Z,3.30
2023-03-11T17:05:50.501Z,3.80
2023-03-11T17:08:18.631Z,3.70
2023-03-11T17:10:47.040Z,3.30
2023-03-11T17:13:18.422Z,3.60
2023-03-11T17:16:00.662Z,3.40
2023-03-11T17:18:29.478Z,3.80
2023-03-11T17:20:57.589Z,4.70
2023-03-11T17:23:25.834Z,3.80
2023-03-11T17:25:53.914Z,3.80
2023-03-11T17:28:22.024Z,7.40
2023-03-11T17:30:50.461Z,5.30
2023-03-11T17:33:18.534Z,14.30
2023-03-11T17:35:47.563Z,5.20
2023-03-11T17:38:16.647Z,36.90
2023-03-11T17:40:45.090Z,17.80
2023-03-11T17:43:13.146Z,12.50
2023-03-11T17:45:41.411Z,5.80
2023-03-11T17:48:09.813Z,3.10
2023-03-11T17:50:38.980Z,3.60
2023-03-11T17:53:07.618Z,4.70
2023-03-11T17:55:39.740Z,6.90
2023-03-11T17:58:08.754Z,2.80
2023-03-11T18:00:38.182Z,2.50
2023-03-11T18:03:06.425Z,10.60
2023-03-11T18:05:36.997Z,6.80
2023-03-11T18:08:05.340Z,20.60
2023-03-11T18:10:33.539Z,22.50
2023-03-11T18:13:01.679Z,10.30
2023-03-11T18:15:29.779Z,3.20
2023-03-11T18:17:58.027Z,2.20
2023-03-11T18:20:26.137Z,2.10
2023-03-11T18:22:56.070Z,1.80
2023-03-11T18:25:24.185Z,2.20
2023-03-11T18:27:52.261Z,3.60
2023-03-11T18:30:20.505Z,1.90
2023-03-11T18:32:49.654Z,2.80
2023-03-11T18:35:18.930Z,1.90
2023-03-11T18:37:47.111Z,2.20
2023-03-11T18:40:15.252Z,2.60
2023-03-11T18:42:43.388Z,2.40
2023-03-11T18:45:12.432Z,2.60
2023-03-11T18:47:40.790Z,2.00
2023-03-11T18:50:09.837Z,2.30
2023-03-11T18:52:38.068Z,1.80
2023-03-11T18:55:07.181Z,1.70
2023-03-11T18:57:35.314Z,1.70
2023-03-11T19:00:04.415Z,1.60
2023-03-11T19:02:32.621Z,1.40
2023-03-11T19:05:01.040Z,1.70
2023-03-11T19:07:29.583Z,1.40
2023-03-11T19:09:58.331Z,1.30
2023-03-11T19:12:29.408Z,1.10
2023-03-11T19:14:57.511Z,1.40
2023-03-11T19:17:25.676Z,1.10
2023-03-11T19:19:54.144Z,1.60
2023-03-11T19:22:22.323Z,1.30
2023-03-11T19:24:54.299Z,1.40
2023-03-11T19:27:22.515Z,1.20
2023-03-11T19:29:50.586Z,1.80
2023-03-11T19:32:19.007Z,20.80
2023-03-11T19:34:47.311Z,6.80
2023-03-11T19:37:17.303Z,2.20
2023-03-11T19:39:45.589Z,9.10
2023-03-11T19:42:13.869Z,16.60
2023-03-11T19:44:41.972Z,7.50
2023-03-11T19:47:10.170Z,8.60
2023-03-11T19:49:38.394Z,29.30
2023-03-11T19:52:09.968Z,2.80
2023-03-11T19:54:38.328Z,23.70
2023-03-11T19:57:06.631Z,4.30
2023-03-11T19:59:34.882Z,1.30
2023-03-11T20:02:03.555Z,0.80
2023-03-11T20:04:32.529Z,0.90
2023-03-11T20:07:00.961Z,0.70
2023-03-11T20:09:29.110Z,0.80
2023-03-11T20:11:57.233Z,0.70
2023-03-11T20:14:25.412Z,0.60
2023-03-11T20:16:54.054Z,0.60
2023-03-11T20:19:22.405Z,1.10
2023-03-11T20:21:50.541Z,2.40
2023-03-11T20:24:18.837Z,2.50
2023-03-11T20:26:48.815Z,1.00
2023-03-11T20:29:18.619Z,0.90
2023-03-11T20:31:46.888Z,0.60
2023-03-11T20:34:15.004Z,0.60
2023-03-11T20:36:43.610Z,1.10
2023-03-11T20:39:12.590Z,1.10
2023-03-11T20:41:41.528Z,1.00
2023-03-11T20:44:13.464Z,0.90
2023-03-11T20:46:42.651Z,1.00
2023-03-11T20:49:11.513Z,0.80
2023-03-11T20:51:41.749Z,0.80
2023-03-11T20:54:12.158Z,0.90
2023-03-11T20:56:40.942Z,0.80
2023-03-11T20:59:14.027Z,1.10
2023-03-11T21:04:10.882Z,0.70
2023-03-11T21:06:41.216Z,0.90
2023-03-11T21:09:14.695Z,1.20
2023-03-11T21:11:42.902Z,1.10
2023-03-11T21:14:14.649Z,1.00
2023-03-11T21:16:45.232Z,1.10
2023-03-11T21:19:14.085Z,0.80
2023-03-11T21:21:43.274Z,0.90
2023-03-11T21:24:12.558Z,0.80
2023-03-11T21:26:41.044Z,1.00
2023-03-11T21:29:09.542Z,1.20
2023-03-11T21:31:37.768Z,0.80
2023-03-11T21:34:06.198Z,1.30
2023-03-11T21:36:34.620Z,0.80
2023-03-11T21:39:03.842Z,1.10
2023-03-11T21:41:32.212Z,1.20
2023-03-11T21:44:00.796Z,1.00
2023-03-11T21:46:32.183Z,1.00
2023-03-11T21:49:01.742Z,1.00
2023-03-11T21:51:30.232Z,1.20
2023-03-11T21:53:59.557Z,1.10
2023-03-11T21:56:28.820Z,1.20
2023-03-11T21:58:57.915Z,1.50
2023-03-11T22:01:26.411Z,1.20
2023-03-11T22:03:55.395Z,1.40
2023-03-11T22:06:24.512Z,1.60
2023-03-11T22:08:53.204Z,1.20
2023-03-11T22:11:21.422Z,1.10
2023-03-11T22:13:51.752Z,1.70
2023-03-11T22:16:21.922Z,1.20
2023-03-11T22:18:51.420Z,1.20
2023-03-11T22:21:20.938Z,0.90
2023-03-11T22:23:49.338Z,1.00
2023-03-11T22:26:17.909Z,1.20
2023-03-11T22:28:46.084Z,1.20
2023-03-11T22:31:15.670Z,1.70
2023-03-11T22:33:44.184Z,1.20
2023-03-11T22:36:12.524Z,1.10
2023-03-11T22:38:44.334Z,0.80
2023-03-11T22:41:14.639Z,1.00
2023-03-11T22:43:42.906Z,1.10
2023-03-11T22:46:11.258Z,1.20
2023-03-11T22:48:39.972Z,0.60
2023-03-11T22:51:08.665Z,0.70
2023-03-11T22:53:37.040Z,0.80
2023-03-11T22:56:16.698Z,0.70
2023-03-11T22:58:44.881Z,0.70
2023-03-11T23:01:13.766Z,0.80
2023-03-11T23:03:43.373Z,0.70
2023-03-11T23:06:15.603Z,0.70
2023-03-11T23:08:44.202Z,0.80
2023-03-11T23:11:15.853Z,0.70
2023-03-11T23:13:44.758Z,0.70
2023-03-11T23:16:24.126Z,0.70
2023-03-11T23:18:55.612Z,0.60
2023-03-11T23:21:28.240Z,0.80
2023-03-11T23:23:57.004Z,0.60
2023-03-11T23:26:25.172Z,0.50
2023-03-11T23:28:54.056Z,0.70
2023-03-11T23:31:25.023Z,0.80
2023-03-11T23:33:53.888Z,0.90
2023-03-11T23:36:27.151Z,0.50
2023-03-11T23:38:55.359Z,0.70
2023-03-11T23:41:24.095Z,0.50
2023-03-11T23:43:52.535Z,0.40
2023-03-11T23:46:20.851Z,0.60
2023-03-11T23:48:49.209Z,0.50
2023-03-11T23:51:17.660Z,0.50
2023-03-11T23:53:46.138Z,0.80
2023-03-11T23:56:17.527Z,0.50
2023-03-11T23:58:46.401Z,0.80
